Time;durP1;ratioP1;P1;durP2;ratioP2;P2;SDS_P1;SDS_P2;PMS_P1;PMS_P2;Temp;Humidity;BMP_temperature;BMP_pressure;BME280_temperature;BME280_humidity;BME280_pressure;Samples;Min_cycle;Max_cycle;Signal;HPM_P1;HPM_P2
2022/07/13 00:01:26;;;;;;;;;;;23.60;81.70;;;;;;5016219;28;19928;-74
2022/07/13 00:03:53;;;;;;;;;;;23.60;81.80;;;;;;4999257;28;19933;-74
2022/07/13 00:06:21;;;;;;;;;;;23.60;81.60;;;;;;5017161;28;20356;-74
2022/07/13 00:08:48;;;;;;;;;;;23.60;81.40;;;;;;5016159;28;19926;-74
2022/07/13 00:11:16;;;;;;;;;;;23.50;81.40;;;;;;5017004;28;19928;-74
2022/07/13 00:13:43;;;;;;;;;;;23.50;81.70;;;;;;5016274;28;20113;-74
2022/07/13 00:16:10;;;;;;;;;;;23.50;82.10;;;;;;4999885;28;19933;-74
2022/07/13 00:18:38;;;;;;;;;;;23.50;82.50;;;;;;5000309;28;19921;-75
2022/07/13 00:21:05;;;;;;;;;;;23.50;82.60;;;;;;4998592;28;19929;-74
2022/07/13 00:23:33;;;;;;;;;;;23.40;82.30;;;;;;5000022;28;19921;-74
2022/07/13 00:26:00;;;;;;;;;;;23.40;82.60;;;;;;4967868;28;19921;-75
2022/07/13 00:28:28;;;;;;;;;;;23.40;82.20;;;;;;4982439;28;19921;-74
2022/07/13 00:30:55;;;;;;;;;;;23.40;83.30;;;;;;4999649;28;19940;-74
2022/07/13 00:33:23;;;;;;;;;;;23.40;82.60;;;;;;4999870;28;19922;-74
2022/07/13 00:35:50;;;;;;;;;;;23.30;82.80;;;;;;5034143;28;20275;-75
2022/07/13 00:38:18;;;;;;;;;;;23.40;82.60;;;;;;5019176;28;19928;-74
2022/07/13 00:40:45;;;;;;;;;;;23.30;82.30;;;;;;5035416;28;20379;-74
2022/07/13 00:43:12;;;;;;;;;;;23.30;82.90;;;;;;5035690;28;20267;-74
2022/07/13 00:45:41;;;;;;;;;;;23.30;82.80;;;;;;5036122;28;19932;-75
2022/07/13 00:48:09;;;;;;;;;;;23.20;82.80;;;;;;5017906;28;19928;-74
2022/07/13 00:50:37;;;;;;;;;;;23.20;82.50;;;;;;5036530;28;19925;-74
2022/07/13 00:53:05;;;;;;;;;;;23.20;83.30;;;;;;5019052;28;20362;-74
2022/07/13 00:55:34;;;;;;;;;;;23.10;83.20;;;;;;5033985;28;19936;-74
2022/07/13 00:58:01;;;;;;;;;;;23.20;83.20;;;;;;5035745;28;19925;-75
2022/07/13 01:00:29;;;;;;;;;;;23.10;83.30;;;;;;5017672;28;20248;-74
2022/07/13 01:02:56;;;;;;;;;;;23.10;83.30;;;;;;5034990;28;19936;-74
2022/07/13 01:05:24;;;;;;;;;;;23.00;83.30;;;;;;5036154;28;19928;-75
2022/07/13 01:07:52;;;;;;;;;;;23.00;83.30;;;;;;5033802;28;19924;-74
2022/07/13 01:10:19;;;;;;;;;;;23.00;83.90;;;;;;5018750;28;19969;-74
2022/07/13 01:12:47;;;;;;;;;;;22.80;83.50;;;;;;5018760;28;19932;-74
2022/07/13 01:15:15;;;;;;;;;;;23.00;84.30;;;;;;5017583;28;19921;-74
2022/07/13 01:17:43;;;;;;;;;;;22.90;83.80;;;;;;5034977;28;19928;-74
2022/07/13 01:20:10;;;;;;;;;;;22.90;84.20;;;;;;5033214;28;20363;-73
2022/07/13 01:22:45;;;;;;;;;;;22.90;84.20;;;;;;5034533;28;20359;-74
2022/07/13 01:25:13;;;;;;;;;;;22.90;84.00;;;;;;5035648;28;19920;-74
2022/07/13 01:27:41;;;;;;;;;;;22.80;83.70;;;;;;5033560;28;19921;-74
2022/07/13 01:30:09;;;;;;;;;;;22.90;83.80;;;;;;5018324;28;20358;-74
2022/07/13 01:32:46;;;;;;;;;;;22.80;83.80;;;;;;5035524;28;19921;-74
2022/07/13 01:35:15;;;;;;;;;;;22.80;84.40;;;;;;5033223;28;19932;-74
2022/07/13 01:37:43;;;;;;;;;;;22.70;84.40;;;;;;5018027;28;19927;-74
2022/07/13 01:40:11;;;;;;;;;;;22.70;84.40;;;;;;5033835;28;19921;-74
2022/07/13 01:42:43;;;;;;;;;;;22.70;84.50;;;;;;5034631;28;19923;-75
2022/07/13 01:45:11;;;;;;;;;;;22.70;84.80;;;;;;5018450;28;19932;-74
2022/07/13 01:47:39;;;;;;;;;;;22.70;84.70;;;;;;5034158;28;19921;-74
2022/07/13 01:50:07;;;;;;;;;;;22.70;84.40;;;;;;5035050;28;19921;-74
2022/07/13 01:52:35;;;;;;;;;;;22.70;84.60;;;;;;5034248;28;19921;-74
2022/07/13 01:55:03;;;;;;;;;;;22.70;84.60;;;;;;5033994;28;19921;-74
2022/07/13 01:57:31;;;;;;;;;;;22.70;84.40;;;;;;5034457;28;19921;-74
2022/07/13 01:59:59;;;;;;;;;;;22.70;84.20;;;;;;5018204;28;19921;-74
2022/07/13 02:02:27;;;;;;;;;;;22.70;84.60;;;;;;5016782;28;20267;-73
2022/07/13 02:04:54;;;;;;;;;;;22.70;84.60;;;;;;5034604;28;19921;-74
2022/07/13 02:07:22;;;;;;;;;;;22.70;84.80;;;;;;5017282;28;19921;-74
2022/07/13 02:09:50;;;;;;;;;;;22.70;85.00;;;;;;5033964;28;19936;-74
2022/07/13 02:12:17;;;;;;;;;;;22.70;84.60;;;;;;5034236;28;19928;-74
2022/07/13 02:14:46;;;;;;;;;;;22.70;84.90;;;;;;5016851;28;19921;-74
2022/07/13 02:17:13;;;;;;;;;;;22.60;84.00;;;;;;5017498;28;19921;-74
2022/07/13 02:19:45;;;;;;;;;;;22.60;84.10;;;;;;5002536;28;19931;-74
2022/07/13 02:22:14;;;;;;;;;;;22.60;84.10;;;;;;5032853;28;19921;-74
2022/07/13 02:24:41;;;;;;;;;;;22.30;84.50;;;;;;5035285;28;19925;-74
2022/07/13 02:27:09;;;;;;;;;;;22.60;84.60;;;;;;5033841;28;19920;-75
2022/07/13 02:29:36;;;;;;;;;;;22.60;84.20;;;;;;5021264;28;19925;-74
2022/07/13 02:32:06;;;;;;;;;;;22.60;84.70;;;;;;5037854;28;19921;-75
2022/07/13 02:34:33;;;;;;;;;;;22.60;83.90;;;;;;5020664;28;19921;-73
2022/07/13 02:37:01;;;;;;;;;;;22.60;84.10;;;;;;5037920;28;19928;-73
2022/07/13 02:39:30;;;;;;;;;;;22.60;84.00;;;;;;5037821;28;20259;-74
2022/07/13 02:41:58;;;;;;;;;;;22.60;84.20;;;;;;5037570;28;19928;-74
2022/07/13 02:44:25;;;;;;;;;;;22.60;84.70;;;;;;5037870;28;19936;-74
2022/07/13 02:46:52;;;;;;;;;;;22.60;84.80;;;;;;5020331;28;19948;-74
2022/07/13 02:49:20;;;;;;;;;;;22.60;84.40;;;;;;5037524;28;19921;-74
2022/07/13 02:51:47;;;;;;;;;;;22.60;84.30;;;;;;5037683;28;19921;-74
2022/07/13 02:54:16;;;;;;;;;;;22.60;85.20;;;;;;5020335;28;19921;-74
2022/07/13 02:56:44;;;;;;;;;;;22.50;84.40;;;;;;5037271;28;19921;-75
2022/07/13 02:59:12;;;;;;;;;;;22.50;85.00;;;;;;5020816;28;19921;-74
2022/07/13 03:01:39;;;;;;;;;;;22.50;84.90;;;;;;5037154;28;19921;-74
2022/07/13 03:04:07;;;;;;;;;;;22.40;85.20;;;;;;5038142;28;19946;-74
2022/07/13 03:06:38;;;;;;;;;;;22.40;84.90;;;;;;5037734;28;19921;-74
2022/07/13 03:09:05;;;;;;;;;;;22.40;85.30;;;;;;5036131;28;19921;-75
2022/07/13 03:11:33;;;;;;;;;;;22.40;84.80;;;;;;5038113;28;20267;-75
2022/07/13 03:14:02;;;;;;;;;;;22.40;85.40;;;;;;5020321;28;19921;-74
2022/07/13 03:16:30;;;;;;;;;;;22.40;84.80;;;;;;5037004;28;20264;-74
2022/07/13 03:18:59;;;;;;;;;;;22.40;84.70;;;;;;5020612;28;19921;-74
2022/07/13 03:21:28;;;;;;;;;;;22.40;85.20;;;;;;5035824;28;19928;-74
2022/07/13 03:23:56;;;;;;;;;;;22.40;85.40;;;;;;5037081;28;19921;-74
2022/07/13 03:26:24;;;;;;;;;;;22.30;85.40;;;;;;5037273;28;19920;-74
2022/07/13 03:28:52;;;;;;;;;;;22.30;85.10;;;;;;5035723;28;19996;-74
2022/07/13 03:31:20;;;;;;;;;;;22.30;85.20;;;;;;5036752;28;19921;-75
2022/07/13 03:33:48;;;;;;;;;;;22.30;85.50;;;;;;5033844;28;19932;-74
2022/07/13 03:36:17;;;;;;;;;;;22.30;85.70;;;;;;4984634;28;19932;-74
2022/07/13 03:38:44;;;;;;;;;;;22.30;85.90;;;;;;4999472;28;19921;-74
2022/07/13 03:41:12;;;;;;;;;;;22.30;85.50;;;;;;4999457;28;19932;-74
2022/07/13 03:43:39;;;;;;;;;;;22.30;85.10;;;;;;4984975;28;20261;-74
2022/07/13 03:46:08;;;;;;;;;;;22.20;85.30;;;;;;5000766;28;20344;-74
2022/07/13 03:48:36;;;;;;;;;;;22.20;85.30;;;;;;4967140;28;19932;-74
2022/07/13 03:51:04;;;;;;;;;;;22.10;85.20;;;;;;5000212;28;20272;-74
2022/07/13 03:53:31;;;;;;;;;;;22.10;84.90;;;;;;4999408;28;19932;-74
2022/07/13 03:56:00;;;;;;;;;;;22.10;84.70;;;;;;4984371;28;19922;-74
2022/07/13 03:58:27;;;;;;;;;;;22.10;84.80;;;;;;5000200;28;20372;-74
2022/07/13 04:00:55;;;;;;;;;;;22.10;84.20;;;;;;4999146;28;19989;-74
2022/07/13 04:03:23;;;;;;;;;;;22.10;83.80;;;;;;5000107;28;19921;-74
2022/07/13 04:05:52;;;;;;;;;;;22.10;84.00;;;;;;4984831;28;19928;-73
2022/07/13 04:08:19;;;;;;;;;;;22.20;83.70;;;;;;4966698;28;19921;-74
2022/07/13 04:10:47;;;;;;;;;;;22.20;83.20;;;;;;5000256;28;19921;-74
2022/07/13 04:13:16;;;;;;;;;;;22.20;83.30;;;;;;5000404;28;19928;-74
2022/07/13 04:15:44;;;;;;;;;;;22.20;83.50;;;;;;4982733;28;20267;-75
2022/07/13 04:18:11;;;;;;;;;;;22.20;84.60;;;;;;4999759;28;19922;-74
2022/07/13 04:20:40;;;;;;;;;;;22.20;84.50;;;;;;4998981;28;19922;-74
2022/07/13 04:23:08;;;;;;;;;;;22.20;84.70;;;;;;4999887;28;19921;-75
2022/07/13 04:25:36;;;;;;;;;;;22.20;84.80;;;;;;4999778;28;19928;-74
2022/07/13 04:28:04;;;;;;;;;;;22.20;82.80;;;;;;4998389;28;19922;-74
2022/07/13 04:30:32;;;;;;;;;;;22.20;83.50;;;;;;4999382;28;20352;-74
2022/07/13 04:33:01;;;;;;;;;;;22.30;83.80;;;;;;4999449;28;19928;-74
2022/07/13 04:35:29;;;;;;;;;;;22.30;83.30;;;;;;5010941;28;19921;-74
2022/07/13 04:37:57;;;;;;;;;;;22.30;84.00;;;;;;5018834;28;19928;-74
2022/07/13 04:40:26;;;;;;;;;;;22.30;83.60;;;;;;5034266;28;20184;-74
2022/07/13 04:42:53;;;;;;;;;;;22.30;84.60;;;;;;5035648;28;20006;-75
2022/07/13 04:45:22;;;;;;;;;;;22.30;83.60;;;;;;5019390;28;19925;-74
2022/07/13 04:47:53;;;;;;;;;;;22.30;83.70;;;;;;5034158;28;19925;-74
2022/07/13 04:50:22;;;;;;;;;;;22.30;84.30;;;;;;5035229;28;19929;-74
2022/07/13 04:52:50;;;;;;;;;;;22.30;84.00;;;;;;5019091;28;20356;-74
2022/07/13 04:55:19;;;;;;;;;;;22.40;83.60;;;;;;5018165;28;19958;-74
2022/07/13 04:57:47;;;;;;;;;;;22.30;84.30;;;;;;5018674;28;19921;-75
2022/07/13 05:00:16;;;;;;;;;;;22.30;84.70;;;;;;5017977;28;19932;-74
2022/07/13 05:02:43;;;;;;;;;;;22.40;84.70;;;;;;5035993;28;19925;-74
2022/07/13 05:05:11;;;;;;;;;;;22.40;83.50;;;;;;5018997;28;19921;-73
2022/07/13 05:07:38;;;;;;;;;;;22.40;85.30;;;;;;5034736;28;19930;-74
2022/07/13 05:10:09;;;;;;;;;;;22.40;84.00;;;;;;5018337;28;19921;-74
2022/07/13 05:12:39;;;;;;;;;;;22.00;83.30;;;;;;5034837;28;20267;-74
2022/07/13 05:15:08;;;;;;;;;;;22.40;82.80;;;;;;5033941;28;19940;-74
2022/07/13 05:17:37;;;;;;;;;;;22.40;84.30;;;;;;5018514;28;19921;-74
2022/07/13 05:20:05;;;;;;;;;;;22.40;83.80;;;;;;5033804;28;19925;-74
2022/07/13 05:22:36;;;;;;;;;;;22.40;84.60;;;;;;5034648;28;20339;-74
2022/07/13 05:25:03;;;;;;;;;;;22.50;82.80;;;;;;5018800;28;19932;-74
2022/07/13 05:27:31;;;;;;;;;;;22.50;82.90;;;;;;5017576;28;19921;-74
2022/07/13 05:30:00;;;;;;;;;;;22.50;81.90;;;;;;5034685;28;19921;-74
2022/07/13 05:32:27;;;;;;;;;;;22.50;83.00;;;;;;5034843;28;19932;-74
2022/07/13 05:34:55;;;;;;;;;;;22.60;82.10;;;;;;5017000;28;20245;-74
2022/07/13 05:37:23;;;;;;;;;;;22.60;81.60;;;;;;5018648;28;19921;-74
2022/07/13 05:39:51;;;;;;;;;;;22.60;81.50;;;;;;5035246;28;19921;-73
2022/07/13 05:42:18;;;;;;;;;;;22.60;80.90;;;;;;5034303;28;20351;-74
2022/07/13 05:44:46;;;;;;;;;;;22.60;79.80;;;;;;5035327;28;19928;-74
2022/07/13 05:47:13;;;;;;;;;;;22.60;80.20;;;;;;5033241;28;19921;-75
2022/07/13 05:49:40;;;;;;;;;;;22.70;79.10;;;;;;5017756;28;20360;-74
2022/07/13 05:52:10;;;;;;;;;;;22.60;78.10;;;;;;5034471;28;19929;-74
2022/07/13 05:54:38;;;;;;;;;;;22.70;78.50;;;;;;5017105;28;19921;-74
2022/07/13 05:57:11;;;;;;;;;;;22.70;80.10;;;;;;5035313;28;19921;-73
2022/07/13 05:59:39;;;;;;;;;;;22.60;78.70;;;;;;5033912;28;20378;-74
2022/07/13 06:02:06;;;;;;;;;;;22.60;80.20;;;;;;5033216;28;19928;-74
2022/07/13 06:04:34;;;;;;;;;;;22.70;79.50;;;;;;5034375;28;19921;-74
2022/07/13 06:07:01;;;;;;;;;;;22.70;78.70;;;;;;5033108;28;19921;-74
2022/07/13 06:09:28;;;;;;;;;;;22.70;77.80;;;;;;5034494;28;19921;-74
2022/07/13 06:11:56;;;;;;;;;;;22.70;78.20;;;;;;5035002;28;19921;-74
2022/07/13 06:14:23;;;;;;;;;;;22.80;76.60;;;;;;5033097;28;19921;-74
2022/07/13 06:16:51;;;;;;;;;;;22.80;77.00;;;;;;5033903;28;19920;-74
2022/07/13 06:19:18;;;;;;;;;;;22.90;75.80;;;;;;5035465;28;19920;-74
2022/07/13 06:21:45;;;;;;;;;;;22.90;76.60;;;;;;5033683;28;19936;-74
2022/07/13 06:24:13;;;;;;;;;;;23.00;77.10;;;;;;5034214;28;19921;-74
2022/07/13 06:26:40;;;;;;;;;;;23.00;76.30;;;;;;5033938;28;19932;-74
2022/07/13 06:29:08;;;;;;;;;;;23.10;75.30;;;;;;5016733;28;19921;-74
2022/07/13 06:31:35;;;;;;;;;;;23.10;75.20;;;;;;5018137;28;19944;-73
2022/07/13 06:34:03;;;;;;;;;;;23.10;73.70;;;;;;5029541;28;19928;-74
2022/07/13 06:36:30;;;;;;;;;;;23.10;74.20;;;;;;5015547;28;19921;-74
2022/07/13 06:38:58;;;;;;;;;;;23.10;74.00;;;;;;5015348;28;19928;-73
2022/07/13 06:41:26;;;;;;;;;;;23.10;74.40;;;;;;4996474;28;20375;-74
2022/07/13 06:43:53;;;;;;;;;;;23.80;75.10;;;;;;5015088;28;19921;-74
2022/07/13 06:46:20;;;;;;;;;;;23.10;74.80;;;;;;5015269;28;19933;-74
2022/07/13 06:48:53;;;;;;;;;;;23.10;74.80;;;;;;4997563;28;20284;-74
2022/07/13 06:51:20;;;;;;;;;;;23.10;74.40;;;;;;4997674;28;20337;-74
2022/07/13 06:53:50;;;;;;;;;;;22.90;74.20;;;;;;4996798;28;19929;-74
2022/07/13 06:56:17;;;;;;;;;;;23.00;74.00;;;;;;4997944;28;19921;-73
2022/07/13 06:58:44;;;;;;;;;;;23.00;74.60;;;;;;4981321;28;19921;-73
2022/07/13 07:01:12;;;;;;;;;;;23.00;74.90;;;;;;5013544;28;19922;-75
2022/07/13 07:03:40;;;;;;;;;;;23.00;75.30;;;;;;4997794;28;19925;-74
2022/07/13 07:06:08;;;;;;;;;;;23.00;74.90;;;;;;4997674;28;19928;-73
2022/07/13 07:08:35;;;;;;;;;;;23.00;75.00;;;;;;5013655;28;19925;-74
2022/07/13 07:11:03;;;;;;;;;;;23.10;75.20;;;;;;5014690;28;20375;-74
2022/07/13 07:13:30;;;;;;;;;;;23.10;76.20;;;;;;4982330;28;19921;-74
2022/07/13 07:15:59;;;;;;;;;;;23.20;74.80;;;;;;4985303;28;19933;-74
2022/07/13 07:18:27;;;;;;;;;;;23.20;74.90;;;;;;5018302;28;19928;-74
2022/07/13 07:20:54;;;;;;;;;;;22.90;75.40;;;;;;4999877;28;19932;-74
2022/07/13 07:23:22;;;;;;;;;;;23.40;75.80;;;;;;5000763;28;19921;-74
2022/07/13 07:25:49;;;;;;;;;;;23.40;75.10;;;;;;5018121;28;19944;-74
2022/07/13 07:28:17;;;;;;;;;;;23.50;74.30;;;;;;4983502;28;19932;-74
2022/07/13 07:30:44;;;;;;;;;;;23.60;75.00;;;;;;5000833;28;19921;-74
2022/07/13 07:33:11;;;;;;;;;;;23.60;74.90;;;;;;4984993;28;19952;-73
2022/07/13 07:35:39;;;;;;;;;;;23.70;74.50;;;;;;5031278;28;19921;-74
2022/07/13 07:38:06;;;;;;;;;;;23.70;74.70;;;;;;5037626;28;19921;-74
2022/07/13 07:40:34;;;;;;;;;;;23.70;74.10;;;;;;5036650;28;19921;-74
2022/07/13 07:43:01;;;;;;;;;;;23.70;74.50;;;;;;5037943;28;20344;-74
2022/07/13 07:45:28;;;;;;;;;;;23.70;73.80;;;;;;5037303;28;19928;-74
2022/07/13 07:47:56;;;;;;;;;;;23.70;73.90;;;;;;5036282;28;20229;-74
2022/07/13 07:50:23;;;;;;;;;;;23.60;73.50;;;;;;5037238;28;19921;-73
2022/07/13 07:52:52;;;;;;;;;;;23.60;73.40;;;;;;5037450;28;19921;-74
2022/07/13 07:55:22;;;;;;;;;;;23.50;73.60;;;;;;5035426;28;19921;-75
2022/07/13 07:57:50;;;;;;;;;;;23.50;73.80;;;;;;5036694;28;19935;-74
2022/07/13 08:00:18;;;;;;;;;;;23.40;73.60;;;;;;5018794;28;19921;-74
2022/07/13 08:02:46;;;;;;;;;;;23.40;73.40;;;;;;5036183;28;19925;-75
2022/07/13 08:05:14;;;;;;;;;;;23.40;73.70;;;;;;5036087;28;19921;-74
2022/07/13 08:07:42;;;;;;;;;;;23.50;75.50;;;;;;5035944;28;19928;-74
2022/07/13 08:10:13;;;;;;;;;;;23.40;76.30;;;;;;5036319;28;19925;-74
2022/07/13 08:12:55;;;;;;;;;;;23.40;77.00;;;;;;5019887;28;19921;-74
2022/07/13 08:15:23;;;;;;;;;;;23.40;79.50;;;;;;5035800;28;19928;-74
2022/07/13 08:17:51;;;;;;;;;;;23.40;77.00;;;;;;5035899;28;19925;-75
2022/07/13 08:20:18;;;;;;;;;;;23.30;75.60;;;;;;5034725;28;19921;-75
2022/07/13 08:22:50;;;;;;;;;;;23.30;75.60;;;;;;5036133;28;19944;-74
2022/07/13 08:25:18;;;;;;;;;;;23.40;74.90;;;;;;5019073;28;19920;-74
2022/07/13 08:27:45;;;;;;;;;;;23.50;75.40;;;;;;5034870;28;19925;-75
2022/07/13 08:30:13;;;;;;;;;;;23.60;74.50;;;;;;5036471;28;19940;-74
2022/07/13 08:32:40;;;;;;;;;;;23.80;74.70;;;;;;5036731;28;19920;-74
2022/07/13 08:40:42;;;;;;;;;;;24.00;73.60;;;;;;5034233;28;19971;-74
2022/07/13 08:43:12;;;;;;;;;;;24.00;72.60;;;;;;5035916;28;19921;-74
2022/07/13 08:45:39;;;;;;;;;;;24.00;72.30;;;;;;5036597;28;20352;-74
2022/07/13 08:48:14;;;;;;;;;;;24.10;73.20;;;;;;5034321;28;20280;-74
2022/07/13 08:50:42;;;;;;;;;;;24.20;72.40;;;;;;5035419;28;19921;-75
2022/07/13 08:53:10;;;;;;;;;;;24.30;71.50;;;;;;5019046;28;19928;-74
2022/07/13 08:55:38;;;;;;;;;;;24.30;71.90;;;;;;5034230;28;19921;-75
2022/07/13 08:58:06;;;;;;;;;;;24.30;71.90;;;;;;5035097;28;19925;-75
2022/07/13 09:00:33;;;;;;;;;;;24.40;72.00;;;;;;5034227;28;19921;-73
2022/07/13 09:03:01;;;;;;;;;;;24.50;72.00;;;;;;5036117;28;19921;-75
2022/07/13 09:05:31;;;;;;;;;;;24.60;72.00;;;;;;5035127;28;19921;-74
2022/07/13 09:08:01;;;;;;;;;;;24.60;70.80;;;;;;5034741;28;19932;-74
2022/07/13 09:10:29;;;;;;;;;;;24.70;71.60;;;;;;5035353;28;20348;-74
2022/07/13 09:12:57;;;;;;;;;;;24.80;71.00;;;;;;5036096;28;19921;-74
2022/07/13 09:15:31;;;;;;;;;;;24.90;70.60;;;;;;5018205;28;19921;-74
2022/07/13 09:17:59;;;;;;;;;;;24.90;70.50;;;;;;5035505;28;19928;-74
2022/07/13 09:20:27;;;;;;;;;;;25.00;70.60;;;;;;5017049;28;19921;-73
2022/07/13 09:23:02;;;;;;;;;;;25.00;70.00;;;;;;5035911;28;19921;-74
2022/07/13 09:25:32;;;;;;;;;;;25.00;69.50;;;;;;5018915;28;20382;-75
2022/07/13 09:28:04;;;;;;;;;;;25.00;70.00;;;;;;5033205;28;19921;-75
2022/07/13 09:30:33;;;;;;;;;;;24.70;69.20;;;;;;5035340;28;19928;-75
2022/07/13 09:33:01;;;;;;;;;;;25.00;70.20;;;;;;5035934;28;19928;-74
2022/07/13 09:35:42;;;;;;;;;;;25.00;70.50;;;;;;5033168;28;20374;-74
2022/07/13 09:38:28;;;;;;;;;;;25.10;69.60;;;;;;5034922;28;19928;-75
2022/07/13 09:40:56;;;;;;;;;;;25.20;69.90;;;;;;5016794;28;19928;-74
2022/07/13 09:46:09;;;;;;;;;;;25.20;69.80;;;;;;5034759;28;20271;-75
2022/07/13 09:48:38;;;;;;;;;;;25.20;69.50;;;;;;5034057;28;19921;-74
2022/07/13 09:51:05;;;;;;;;;;;25.10;69.50;;;;;;5034426;28;20303;-74
2022/07/13 09:53:33;;;;;;;;;;;25.10;69.10;;;;;;5033158;28;20348;-75
2022/07/13 09:56:02;;;;;;;;;;;25.10;69.20;;;;;;5018540;28;19921;-73
2022/07/13 09:58:33;;;;;;;;;;;25.00;69.30;;;;;;5035118;28;19921;-74
2022/07/13 10:01:04;;;;;;;;;;;24.90;68.80;;;;;;5033332;28;20263;-74
2022/07/13 10:03:32;;;;;;;;;;;24.90;69.10;;;;;;5035186;28;19921;-74
2022/07/13 10:06:00;;;;;;;;;;;24.80;69.00;;;;;;5017833;28;19920;-74
2022/07/13 10:08:32;;;;;;;;;;;24.70;69.40;;;;;;5016730;28;19921;-74
2022/07/13 10:10:59;;;;;;;;;;;24.80;70.10;;;;;;5034891;28;19921;-75
2022/07/13 10:13:27;;;;;;;;;;;26.00;70.90;;;;;;5034242;28;19936;-74
2022/07/13 10:15:56;;;;;;;;;;;24.80;69.60;;;;;;5035041;28;19940;-74
2022/07/13 10:18:29;;;;;;;;;;;23.80;68.60;;;;;;5017421;28;19932;-73
2022/07/13 10:21:04;;;;;;;;;;;24.80;69.60;;;;;;5033396;28;19928;-73
2022/07/13 10:23:38;;;;;;;;;;;24.90;69.20;;;;;;5035081;28;19933;-75
2022/07/13 10:26:31;;;;;;;;;;;24.90;69.10;;;;;;5034980;28;19921;-74
2022/07/13 10:29:02;;;;;;;;;;;25.10;69.20;;;;;;5032792;28;19948;-74
2022/07/13 10:31:31;;;;;;;;;;;25.10;68.70;;;;;;5033784;28;19921;-73
2022/07/13 10:34:00;;;;;;;;;;;25.10;69.20;;;;;;5029890;28;20344;-74
2022/07/13 10:36:50;;;;;;;;;;;25.20;69.00;;;;;;4998112;28;19922;-74
2022/07/13 10:39:19;;;;;;;;;;;25.20;68.50;;;;;;4953765;28;20264;-74
2022/07/13 10:41:56;;;;;;;;;;;25.20;69.40;;;;;;5013913;28;19929;-74
2022/07/13 10:44:37;;;;;;;;;;;24.80;69.00;;;;;;4998109;28;19954;-74
2022/07/13 10:47:06;;;;;;;;;;;25.30;68.70;;;;;;4996881;28;20109;-75
2022/07/13 10:49:35;;;;;;;;;;;25.30;69.00;;;;;;5000792;28;19936;-74
2022/07/13 10:52:21;;;;;;;;;;;25.40;67.90;;;;;;5018603;28;19926;-74
2022/07/13 10:55:02;;;;;;;;;;;25.50;67.60;;;;;;5017466;28;19928;-75
2022/07/13 10:57:30;;;;;;;;;;;25.60;67.70;;;;;;5018848;28;19921;-74
2022/07/13 11:00:01;;;;;;;;;;;25.80;66.30;;;;;;5001684;28;19921;-74
2022/07/13 11:02:47;;;;;;;;;;;26.10;66.50;;;;;;5000685;28;19926;-74
2022/07/13 11:05:17;;;;;;;;;;;26.30;67.00;;;;;;4985346;28;19932;-75
2022/07/13 11:07:45;;;;;;;;;;;26.50;66.20;;;;;;5000120;28;19921;-74
2022/07/13 11:10:18;;;;;;;;;;;26.60;66.00;;;;;;5001468;28;19921;-75
2022/07/13 11:13:04;;;;;;;;;;;26.60;64.90;;;;;;5001447;28;19921;-74
2022/07/13 11:15:45;;;;;;;;;;;26.60;65.90;;;;;;4983878;28;20377;-75
2022/07/13 11:18:25;;;;;;;;;;;26.60;66.20;;;;;;5018781;28;19934;-74
2022/07/13 11:20:59;;;;;;;;;;;26.70;66.30;;;;;;5016956;28;19929;-75
2022/07/13 11:26:25;;;;;;;;;;;26.80;66.60;;;;;;5001121;28;19928;-75
2022/07/13 11:28:59;;;;;;;;;;;27.00;66.10;;;;;;4999850;28;20345;-75
2022/07/13 11:31:27;;;;;;;;;;;27.10;66.40;;;;;;5000682;28;19928;-75
2022/07/13 11:33:54;;;;;;;;;;;27.30;65.00;;;;;;5016800;28;20272;-74
2022/07/13 11:36:23;;;;;;;;;;;27.40;63.80;;;;;;5001023;28;19921;-74
2022/07/13 11:38:59;;;;;;;;;;;27.40;64.80;;;;;;5000859;28;19925;-74
2022/07/13 11:41:27;;;;;;;;;;;27.60;62.80;;;;;;4999459;28;19921;-75
2022/07/13 11:43:54;;;;;;;;;;;27.70;62.70;;;;;;5000539;28;19921;-75
2022/07/13 11:46:25;;;;;;;;;;;27.80;62.90;;;;;;5017606;28;19921;-74
2022/07/13 11:48:59;;;;;;;;;;;27.80;61.60;;;;;;4999411;28;19929;-74
2022/07/13 11:51:26;;;;;;;;;;;28.00;62.50;;;;;;5000743;28;19921;-74
2022/07/13 11:53:54;;;;;;;;;;;27.90;60.90;;;;;;5016456;28;19932;-74
2022/07/13 11:56:22;;;;;;;;;;;28.00;62.60;;;;;;5000335;28;19921;-74
2022/07/13 11:58:49;;;;;;;;;;;28.10;62.00;;;;;;5000552;28;20368;-74
2022/07/13 12:01:18;;;;;;;;;;;28.10;63.00;;;;;;4998422;28;20089;-74
2022/07/13 12:03:49;;;;;;;;;;;28.20;62.20;;;;;;5000378;28;19928;-74
2022/07/13 12:06:17;;;;;;;;;;;28.20;62.20;;;;;;5000260;28;19933;-74
2022/07/13 12:08:47;;;;;;;;;;;28.00;62.50;;;;;;5015983;28;19925;-74
2022/07/13 12:11:15;;;;;;;;;;;28.20;62.40;;;;;;5000111;28;19929;-75
2022/07/13 12:13:44;;;;;;;;;;;28.10;63.20;;;;;;4999609;28;19921;-74
2022/07/13 12:16:13;;;;;;;;;;;28.00;63.90;;;;;;5017163;28;19932;-73
2022/07/13 12:19:04;;;;;;;;;;;27.80;63.30;;;;;;5017190;28;20264;-74
2022/07/13 12:21:32;;;;;;;;;;;27.60;64.90;;;;;;5015884;28;20387;-74
2022/07/13 12:24:00;;;;;;;;;;;27.60;64.00;;;;;;5017192;28;19925;-74
2022/07/13 12:26:28;;;;;;;;;;;27.50;64.30;;;;;;5017005;28;19926;-74
2022/07/13 12:28:55;;;;;;;;;;;27.50;64.40;;;;;;4998801;28;20348;-74
2022/07/13 12:31:23;;;;;;;;;;;27.60;64.70;;;;;;5017070;28;20252;-74
2022/07/13 12:33:52;;;;;;;;;;;27.70;64.60;;;;;;4998457;28;19930;-74
2022/07/13 12:36:20;;;;;;;;;;;27.80;64.30;;;;;;5017298;28;20344;-75
2022/07/13 12:38:53;;;;;;;;;;;27.80;63.90;;;;;;5016696;28;19925;-74
2022/07/13 12:41:28;;;;;;;;;;;27.90;63.90;;;;;;4998845;28;19933;-74
2022/07/13 12:43:56;;;;;;;;;;;28.10;63.80;;;;;;5016651;28;19922;-74
2022/07/13 12:46:24;;;;;;;;;;;28.00;62.70;;;;;;4983092;28;19921;-75
2022/07/13 12:49:04;;;;;;;;;;;28.10;62.20;;;;;;4982198;28;19932;-74
2022/07/13 12:51:51;;;;;;;;;;;28.10;62.30;;;;;;5016946;28;19921;-74
2022/07/13 12:54:37;;;;;;;;;;;28.10;62.10;;;;;;5015543;28;19993;-74
2022/07/13 12:57:09;;;;;;;;;;;28.10;62.40;;;;;;5017013;28;20337;-74
2022/07/13 12:59:37;;;;;;;;;;;28.20;62.80;;;;;;4999525;28;19921;-74
2022/07/13 13:02:05;;;;;;;;;;;28.40;61.40;;;;;;4998109;28;20371;-74
2022/07/13 13:04:33;;;;;;;;;;;28.60;60.50;;;;;;4999126;28;19933;-74
2022/07/13 13:07:00;;;;;;;;;;;28.70;60.70;;;;;;4997998;28;19921;-75
2022/07/13 13:09:28;;;;;;;;;;;28.80;60.20;;;;;;5016049;28;19932;-74
2022/07/13 13:11:56;;;;;;;;;;;28.90;60.80;;;;;;4998799;28;20383;-74
2022/07/13 13:14:23;;;;;;;;;;;29.00;61.20;;;;;;5015099;28;19922;-75
2022/07/13 13:16:51;;;;;;;;;;;29.10;60.50;;;;;;4999230;28;19928;-75
2022/07/13 13:19:18;;;;;;;;;;;29.00;60.50;;;;;;4999000;28;20379;-75
2022/07/13 13:21:46;;;;;;;;;;;29.00;60.00;;;;;;4997576;28;19921;-74
2022/07/13 13:24:13;;;;;;;;;;;29.00;60.60;;;;;;4998760;28;20375;-74
2022/07/13 13:26:44;;;;;;;;;;;28.90;60.20;;;;;;5015752;28;19922;-75
2022/07/13 13:32:21;;;;;;;;;;;28.90;59.90;;;;;;5015980;28;20263;-75
2022/07/13 13:34:49;;;;;;;;;;;28.90;60.70;;;;;;5015445;28;20366;-75
2022/07/13 13:37:17;;;;;;;;;;;29.00;60.30;;;;;;5035488;28;19928;-74
2022/07/13 13:39:44;;;;;;;;;;;29.20;60.70;;;;;;5034489;28;19921;-74
2022/07/13 13:42:12;;;;;;;;;;;29.20;59.80;;;;;;5033438;28;19921;-74
2022/07/13 13:44:59;;;;;;;;;;;29.20;59.60;;;;;;5034779;28;20264;-74
2022/07/13 13:47:27;;;;;;;;;;;29.30;59.50;;;;;;5033240;28;19921;-75
2022/07/13 13:49:54;;;;;;;;;;;29.30;58.30;;;;;;5018302;28;19932;-75
2022/07/13 13:52:22;;;;;;;;;;;29.30;58.50;;;;;;5034286;28;20291;-74
2022/07/13 13:54:49;;;;;;;;;;;29.40;58.70;;;;;;5033376;28;20279;-74
2022/07/13 13:57:16;;;;;;;;;;;29.50;58.30;;;;;;5017840;28;20344;-75
2022/07/13 13:59:44;;;;;;;;;;;29.60;57.40;;;;;;5034106;28;19920;-75
2022/07/13 14:02:32;;;;;;;;;;;29.70;58.10;;;;;;5034515;28;19921;-74
2022/07/13 14:05:01;;;;;;;;;;;29.90;58.40;;;;;;5034229;28;19928;-75
2022/07/13 14:07:28;;;;;;;;;;;31.30;58.50;;;;;;5016605;28;19925;-75
2022/07/13 14:09:56;;;;;;;;;;;30.40;57.10;;;;;;5034853;28;19921;-75
2022/07/13 14:12:25;;;;;;;;;;;30.40;55.50;;;;;;5034911;28;19928;-75
2022/07/13 14:14:53;;;;;;;;;;;30.40;57.10;;;;;;5034212;28;19921;-74
2022/07/13 14:17:20;;;;;;;;;;;30.40;56.60;;;;;;5034342;28;19921;-75
2022/07/13 14:19:48;;;;;;;;;;;30.40;56.20;;;;;;5034010;28;19925;-74
2022/07/13 14:22:35;;;;;;;;;;;30.50;56.40;;;;;;5034368;28;19921;-75
2022/07/13 14:25:03;;;;;;;;;;;30.60;57.10;;;;;;5038084;28;19921;-74
2022/07/13 14:27:31;;;;;;;;;;;30.80;56.80;;;;;;5037781;28;19928;-75
2022/07/13 14:29:59;;;;;;;;;;;30.80;56.80;;;;;;5039074;28;19944;-74
2022/07/13 14:32:26;;;;;;;;;;;30.70;56.70;;;;;;5038221;28;20366;-74
2022/07/13 14:34:58;;;;;;;;;;;30.60;56.50;;;;;;5036834;28;20249;-75
2022/07/13 14:37:26;;;;;;;;;;;30.60;57.10;;;;;;5039034;28;20362;-75
2022/07/13 14:39:54;;;;;;;;;;;30.70;57.60;;;;;;5039030;28;19928;-74
2022/07/13 14:42:22;;;;;;;;;;;30.70;57.00;;;;;;5036686;28;19921;-74